Wetterdaten: Woche 30.11.09 - 06.12.09 (KW49)
Datum Zeit Temp. A. Feuchte A. Luftdruck Regen Wind Richtung Taupunkt Windchill Windben
30.11.2009 00:00 1,6 C 91 % 1004,4 hPa 0,3 l/m 0,3 km/h N 0,3 C 1,6 C 4,0 km/h
30.11.2009 01:00 1,7 C 91 % 1004,0 hPa 0,0 l/m 0,3 km/h N 0,4 C 1,7 C 2,8 km/h
30.11.2009 02:00 3,6 C 93 % 1003,4 hPa 0,0 l/m 0,8 km/h O-SO 2,5 C 3,6 C 3,6 km/h
30.11.2009 03:00 6,7 C 92 % 1002,8 hPa 0,0 l/m 1,5 km/h SO 5,5 C 6,7 C 8,4 km/h
30.11.2009 04:00 7,4 C 87 % 1002,6 hPa 0,0 l/m 1,0 km/h O 5,4 C 7,4 C 6,8 km/h
30.11.2009 05:00 9,1 C 83 % 1002,3 hPa 0,0 l/m 6,8 km/h S-SO 6,4 C 7,3 C 20,1 km/h
30.11.2009 06:00 12,2 C 73 % 1002,1 hPa 0,0 l/m 11,4 km/h S 7,6 C 9,5 C 32,2 km/h
30.11.2009 07:00 12,6 C 70 % 1002,3 hPa 0,0 l/m 9,9 km/h S 7,3 C 10,6 C 26,5 km/h
30.11.2009 08:00 11,9 C 70 % 1002,1 hPa 0,0 l/m 4,5 km/h S-SO 6,5 C 11,9 C 18,5 km/h
30.11.2009 09:00 11,3 C 70 % 1001,8 hPa 0,0 l/m 8,7 km/h S-SO 6,0 C 9,8 C 28,6 km/h
30.11.2009 10:00 11,8 C 69 % 1001,9 hPa 0,0 l/m 5,4 km/h S 6,4 C 11,8 C 20,9 km/h
30.11.2009 11:00 13,2 C 66 % 1001,0 hPa 0,0 l/m 6,4 km/h S-SO 7,0 C 12,6 C 23,7 km/h
30.11.2009 12:00 12,9 C 68 % 1000,2 hPa 0,0 l/m 6,5 km/h S-SO 7,1 C 12,5 C 21,3 km/h
30.11.2009 13:00 13,2 C 69 % 999,8 hPa 0,0 l/m 5,7 km/h O 7,6 C 13,2 C 17,7 km/h
30.11.2009 14:00 13,3 C 70 % 999,3 hPa 0,0 l/m 11,2 km/h O 7,8 C 10,7 C 22,9 km/h
30.11.2009 15:00 12,7 C 73 % 999,1 hPa 0,0 l/m 9,8 km/h O-NO 7,9 C 10,8 C 19,3 km/h
30.11.2009 16:00 12,4 C 74 % 999,5 hPa 0,0 l/m 5,3 km/h NO 7,9 C 12,1 C 13,7 km/h
30.11.2009 17:00 12,2 C 75 % 999,5 hPa 0,0 l/m 6,1 km/h O-SO 7,8 C 11,8 C 13,3 km/h
30.11.2009 18:00 12,0 C 75 % 999,4 hPa 0,0 l/m 2,3 km/h O 7,8 C 12,0 C 6,4 km/h
30.11.2009 19:00 11,6 C 76 % 999,3 hPa 0,0 l/m 0,5 km/h N 7,5 C 11,6 C 4,4 km/h
30.11.2009 20:00 11,3 C 77 % 999,0 hPa 0,0 l/m 0,2 km/h N 7,4 C 11,3 C 3,6 km/h
30.11.2009 21:00 10,5 C 79 % 998,8 hPa 0,0 l/m 0,3 km/h N 7,0 C 10,5 C 2,4 km/h
30.11.2009 22:00 9,7 C 82 % 998,7 hPa 0,0 l/m 0,5 km/h N 6,8 C 9,7 C 4,8 km/h
30.11.2009 23:00 9,5 C 82 % 998,9 hPa 0,0 l/m 0,5 km/h S 6,5 C 9,5 C 4,8 km/h
01.12.2009 00:00 9,4 C 82 % 998,7 hPa 0,0 l/m 0,5 km/h N 6,5 C 9,4 C 7,1 km/h
01.12.2009 01:00 9,4 C 82 % 998,7 hPa 0,0 l/m 0,1 km/h N 6,4 C 9,4 C 2,0 km/h
01.12.2009 02:00 8,8 C 83 % 998,8 hPa 0,0 l/m 0,0 km/h N 6,0 C 8,8 C 1,2 km/h
01.12.2009 03:00 7,7 C 85 % 999,0 hPa 0,0 l/m 0,0 km/h N 5,3 C 7,7 C 0,4 km/h
01.12.2009 04:00 7,4 C 87 % 999,1 hPa 0,0 l/m 0,1 km/h N 5,4 C 7,4 C 2,0 km/h
01.12.2009 05:00 8,4 C 89 % 999,4 hPa 0,0 l/m 1,0 km/h W 6,7 C 8,4 C 4,8 km/h
01.12.2009 06:00 8,6 C 85 % 1000,3 hPa 0,0 l/m 3,8 km/h NW 6,3 C 8,6 C 8,5 km/h
01.12.2009 07:00 8,1 C 80 % 1001,1 hPa 0,3 l/m 2,2 km/h W 5,0 C 8,1 C 7,2 km/h
01.12.2009 08:00 8,2 C 79 % 1002,0 hPa 0,5 l/m 2,1 km/h W 4,8 C 8,2 C 8,1 km/h
01.12.2009 09:00 7,4 C 84 % 1002,8 hPa 1,8 l/m 2,5 km/h W 4,7 C 7,4 C 11,7 km/h
01.12.2009 10:00 6,3 C 86 % 1003,4 hPa 2,6 l/m 5,2 km/h W 4,1 C 6,3 C 15,7 km/h
01.12.2009 11:00 5,9 C 86 % 1003,8 hPa 2,6 l/m 3,3 km/h W-NW 3,7 C 5,9 C 10,9 km/h
01.12.2009 12:00 5,7 C 86 % 1004,1 hPa 0,8 l/m 1,6 km/h W-NW 3,6 C 5,7 C 9,6 km/h
01.12.2009 13:00 5,6 C 86 % 1003,8 hPa 0,8 l/m 3,3 km/h S-SW 3,5 C 5,6 C 13,3 km/h
01.12.2009 14:00 5,8 C 85 % 1004,7 hPa 0,3 l/m 3,7 km/h SW 3,5 C 5,8 C 15,3 km/h
01.12.2009 15:00 5,3 C 85 % 1005,3 hPa 0,0 l/m 5,4 km/h W 3,0 C 5,2 C 19,3 km/h
01.12.2009 16:00 5,1 C 85 % 1006,1 hPa 0,5 l/m 5,9 km/h W 2,7 C 5,0 C 19,7 km/h
01.12.2009 17:00 5,0 C 84 % 1006,5 hPa 0,0 l/m 6,7 km/h SW 2,6 C 4,6 C 20,1 km/h
01.12.2009 18:00 5,2 C 82 % 1007,1 hPa 0,0 l/m 4,6 km/h W 2,3 C 5,1 C 19,3 km/h
01.12.2009 19:00 5,1 C 80 % 1007,2 hPa 0,0 l/m 6,3 km/h W-SW 2,0 C 4,8 C 21,7 km/h
01.12.2009 20:00 5,4 C 79 % 1007,4 hPa 0,0 l/m 8,8 km/h W-SW 2,1 C 3,4 C 25,3 km/h
01.12.2009 21:00 5,6 C 78 % 1008,4 hPa 0,0 l/m 5,4 km/h S-SW 2,0 C 5,4 C 18,1 km/h
01.12.2009 22:00 5,8 C 77 % 1009,4 hPa 0,0 l/m 7,4 km/h W-SW 2,0 C 4,6 C 29,0 km/h
01.12.2009 23:00 5,8 C 76 % 1010,1 hPa 0,0 l/m 7,0 km/h W 1,9 C 5,3 C 23,7 km/h
02.12.2009 00:00 5,7 C 76 % 1010,9 hPa 0,0 l/m 4,0 km/h W 1,8 C 5,6 C 17,3 km/h
02.12.2009 01:00 5,4 C 76 % 1012,2 hPa 0,0 l/m 3,8 km/h W-NW 1,6 C 5,4 C 14,9 km/h
02.12.2009 02:00 5,2 C 76 % 1012,6 hPa 0,0 l/m 4,8 km/h W 1,4 C 5,2 C 16,9 km/h
02.12.2009 03:00 5,1 C 77 % 1013,0 hPa 0,0 l/m 3,5 km/h W-SW 1,3 C 5,1 C 13,3 km/h
02.12.2009 04:00 5,0 C 77 % 1014,2 hPa 0,0 l/m 4,7 km/h W 1,4 C 5,0 C 16,1 km/h
02.12.2009 05:00 5,1 C 77 % 1014,6 hPa 0,0 l/m 7,6 km/h W-SW 1,4 C 3,7 C 22,1 km/h
02.12.2009 06:00 4,9 C 77 % 1015,2 hPa 0,0 l/m 5,5 km/h W 1,3 C 4,9 C 18,9 km/h
02.12.2009 07:00 4,8 C 78 % 1015,7 hPa 0,0 l/m 4,4 km/h W-SW 1,2 C 4,8 C 14,5 km/h
02.12.2009 08:00 4,7 C 79 % 1016,2 hPa 0,0 l/m 2,6 km/h W 1,3 C 4,7 C 6,9 km/h
02.12.2009 09:00 5,6 C 77 % 1016,6 hPa 0,0 l/m 5,8 km/h NW 2,0 C 5,6 C 17,3 km/h
02.12.2009 10:00 6,4 C 75 % 1016,8 hPa 0,0 l/m 5,3 km/h NW 2,2 C 6,4 C 12,9 km/h
02.12.2009 11:00 7,1 C 72 % 1016,8 hPa 0,0 l/m 3,2 km/h NO 2,3 C 7,1 C 11,3 km/h
02.12.2009 12:00 7,8 C 69 % 1016,4 hPa 0,0 l/m 3,2 km/h NO 2,3 C 7,8 C 9,7 km/h
02.12.2009 13:00 7,9 C 69 % 1016,2 hPa 0,0 l/m 2,4 km/h O 2,4 C 7,9 C 6,4 km/h
02.12.2009 14:00 7,6 C 70 % 1016,2 hPa 0,0 l/m 2,4 km/h O 2,4 C 7,6 C 5,6 km/h
02.12.2009 15:00 7,4 C 70 % 1016,2 hPa 0,0 l/m 1,1 km/h N 2,3 C 7,4 C 2,7 km/h
02.12.2009 16:00 5,8 C 72 % 1016,3 hPa 0,0 l/m 0,0 km/h N 1,1 C 5,8 C 0,8 km/h
02.12.2009 17:00 3,4 C 79 % 1016,5 hPa 0,0 l/m 0,0 km/h N 0,1 C 3,4 C 0,0 km/h
02.12.2009 18:00 2,0 C 83 % 1016,5 hPa 0,0 l/m 0,0 km/h N -0,5 C 2,0 C 0,0 km/h
02.12.2009 19:00 1,2 C 85 % 1016,3 hPa 0,0 l/m 0,0 km/h N -1,0 C 1,2 C 0,0 km/h
02.12.2009 20:00 0,2 C 86 % 1015,9 hPa 0,0 l/m 0,0 km/h N -1,9 C 0,2 C 0,4 km/h
02.12.2009 21:00 -0,3 C 88 % 1015,5 hPa 0,0 l/m 0,0 km/h N -2,1 C -0,3 C 0,8 km/h
02.12.2009 22:00 -0,9 C 88 % 1015,6 hPa 0,0 l/m 0,0 km/h N -2,6 C -0,9 C 0,0 km/h
02.12.2009 23:00 0,8 C 90 % 1015,4 hPa 0,0 l/m 0,4 km/h N -0,7 C 0,8 C 4,0 km/h
03.12.2009 00:00 1,6 C 91 % 1015,3 hPa 0,0 l/m 0,3 km/h N 0,3 C 1,6 C 2,8 km/h
03.12.2009 01:00 1,6 C 91 % 1015,0 hPa 0,0 l/m 0,7 km/h W 0,3 C 1,6 C 3,2 km/h
03.12.2009 02:00 1,1 C 91 % 1014,9 hPa 0,0 l/m 0,7 km/h SW -0,2 C 1,1 C 4,4 km/h
03.12.2009 03:00 1,0 C 91 % 1014,9 hPa 0,0 l/m 0,1 km/h N -0,3 C 1,0 C 1,6 km/h
03.12.2009 04:00 1,0 C 92 % 1014,9 hPa 0,0 l/m 0,1 km/h N -0,2 C 1,0 C 1,2 km/h
03.12.2009 05:00 0,8 C 92 % 1014,8 hPa 0,3 l/m 0,2 km/h N -0,4 C 0,8 C 2,4 km/h
03.12.2009 06:00 0,5 C 92 % 1014,5 hPa 0,0 l/m 0,4 km/h N -0,6 C 0,5 C 2,8 km/h
03.12.2009 07:00 0,1 C 92 % 1014,7 hPa 0,0 l/m 0,7 km/h O-SO -1,1 C 0,1 C 4,4 km/h
03.12.2009 08:00 -0,3 C 92 % 1015,2 hPa 0,0 l/m 0,6 km/h S-SO -1,4 C -0,3 C 4,4 km/h
03.12.2009 09:00 -0,1 C 92 % 1015,2 hPa 0,0 l/m 0,0 km/h N -1,2 C -0,1 C 3,2 km/h
03.12.2009 10:00 0,4 C 92 % 1015,0 hPa 0,0 l/m 0,0 km/h N -0,8 C 0,4 C 4,8 km/h
03.12.2009 11:00 0,6 C 93 % 1014,6 hPa 0,0 l/m 0,0 km/h N -0,4 C 0,6 C 3,2 km/h
03.12.2009 12:00 0,8 C 93 % 1013,9 hPa 0,0 l/m 0,3 km/h N -0,2 C 0,8 C 3,2 km/h
03.12.2009 13:00 0,8 C 93 % 1013,1 hPa 0,0 l/m 0,3 km/h N -0,2 C 0,8 C 2,4 km/h
03.12.2009 14:00 1,1 C 93 % 1012,5 hPa 0,0 l/m 0,2 km/h N 0,1 C 1,1 C 3,2 km/h
03.12.2009 15:00 1,3 C 93 % 1012,4 hPa 0,0 l/m 0,6 km/h S 0,3 C 1,3 C 4,4 km/h
03.12.2009 16:00 1,3 C 93 % 1012,0 hPa 0,0 l/m 0,1 km/h N 0,3 C 1,3 C 1,6 km/h
03.12.2009 17:00 1,4 C 93 % 1011,7 hPa 0,0 l/m 0,0 km/h N 0,4 C 1,4 C 0,0 km/h
03.12.2009 18:00 1,8 C 93 % 1011,4 hPa 0,0 l/m 0,0 km/h N 0,7 C 1,8 C 0,4 km/h
03.12.2009 19:00 2,1 C 93 % 1011,2 hPa 0,0 l/m 0,1 km/h N 1,1 C 2,1 C 1,6 km/h
03.12.2009 20:00 2,3 C 93 % 1011,0 hPa 0,0 l/m 0,2 km/h N 1,3 C 2,3 C 2,8 km/h
03.12.2009 21:00 2,5 C 93 % 1010,7 hPa 0,0 l/m 0,5 km/h N 1,4 C 2,5 C 4,8 km/h
03.12.2009 22:00 2,4 C 93 % 1010,3 hPa 0,0 l/m 0,5 km/h N 1,4 C 2,4 C 5,2 km/h
03.12.2009 23:00 2,3 C 93 % 1010,1 hPa 0,0 l/m 0,4 km/h N 1,3 C 2,3 C 5,2 km/h
04.12.2009 00:00 2,3 C 93 % 1009,5 hPa 0,0 l/m 0,0 km/h N 1,3 C 2,3 C 2,0 km/h
04.12.2009 01:00 2,2 C 92 % 1009,2 hPa 0,0 l/m 0,3 km/h N 1,0 C 2,2 C 3,2 km/h
04.12.2009 02:00 2,0 C 92 % 1008,8 hPa 0,0 l/m 0,1 km/h N 0,8 C 2,0 C 3,2 km/h
04.12.2009 03:00 2,0 C 92 % 1008,4 hPa 0,0 l/m 0,0 km/h N 0,9 C 2,0 C 1,2 km/h
04.12.2009 04:00 2,2 C 92 % 1007,9 hPa 0,0 l/m 0,0 km/h N 1,0 C 2,2 C 0,0 km/h
04.12.2009 05:00 2,3 C 92 % 1007,8 hPa 0,0 l/m 0,0 km/h N 1,1 C 2,3 C 0,4 km/h
04.12.2009 06:00 2,6 C 92 % 1007,9 hPa 0,0 l/m 0,0 km/h N 1,4 C 2,6 C 0,0 km/h
04.12.2009 07:00 3,0 C 93 % 1008,2 hPa 0,0 l/m 0,0 km/h N 1,9 C 3,0 C 1,2 km/h
04.12.2009 08:00 3,5 C 92 % 1008,5 hPa 0,0 l/m 0,2 km/h N 2,3 C 3,5 C 2,0 km/h
04.12.2009 09:00 3,4 C 92 % 1008,9 hPa 0,0 l/m 1,1 km/h NW 2,2 C 3,4 C 5,2 km/h
04.12.2009 10:00 3,3 C 92 % 1009,3 hPa 0,0 l/m 0,9 km/h NW 2,1 C 3,3 C 3,6 km/h
04.12.2009 11:00 3,5 C 92 % 1009,3 hPa 0,0 l/m 0,5 km/h N 2,3 C 3,5 C 4,0 km/h
04.12.2009 12:00 3,5 C 92 % 1009,4 hPa 0,0 l/m 0,6 km/h N 2,3 C 3,5 C 4,0 km/h
04.12.2009 13:00 3,8 C 91 % 1009,3 hPa 0,0 l/m 0,3 km/h N 2,4 C 3,8 C 2,8 km/h
04.12.2009 14:00 4,1 C 91 % 1009,7 hPa 0,0 l/m 0,5 km/h N 2,7 C 4,1 C 3,6 km/h
04.12.2009 15:00 4,2 C 91 % 1010,3 hPa 0,0 l/m 0,3 km/h N 2,9 C 4,2 C 2,4 km/h
04.12.2009 16:00 4,0 C 90 % 1010,8 hPa 0,0 l/m 1,7 km/h NW 2,5 C 4,0 C 8,0 km/h
04.12.2009 17:00 4,5 C 84 % 1011,3 hPa 0,0 l/m 4,1 km/h N-NO 2,0 C 4,5 C 10,9 km/h
04.12.2009 18:00 4,6 C 80 % 1012,0 hPa 0,0 l/m 4,4 km/h W 1,5 C 4,6 C 20,1 km/h
04.12.2009 19:00 3,8 C 79 % 1012,6 hPa 0,0 l/m 3,0 km/h NW 0,4 C 3,8 C 14,1 km/h
04.12.2009 20:00 3,4 C 81 % 1013,1 hPa 0,0 l/m 7,5 km/h W-NW 0,4 C 2,2 C 20,5 km/h
04.12.2009 21:00 3,1 C 81 % 1013,8 hPa 0,0 l/m 4,8 km/h W 0,1 C 3,1 C 15,3 km/h
04.12.2009 22:00 3,2 C 82 % 1014,3 hPa 0,0 l/m 5,4 km/h NW 0,5 C 3,2 C 16,1 km/h
04.12.2009 23:00 3,4 C 82 % 1014,6 hPa 0,0 l/m 5,9 km/h N-NW 0,6 C 2,7 C 17,7 km/h
05.12.2009 00:00 3,8 C 81 % 1014,7 hPa 0,0 l/m 5,6 km/h NW 0,8 C 3,5 C 17,7 km/h
05.12.2009 01:00 4,1 C 79 % 1014,8 hPa 0,0 l/m 6,4 km/h W-NW 0,9 C 4,0 C 20,5 km/h
05.12.2009 02:00 4,3 C 79 % 1015,1 hPa 0,0 l/m 6,2 km/h W 1,0 C 4,0 C 16,1 km/h
05.12.2009 03:00 4,4 C 79 % 1015,4 hPa 0,0 l/m 7,9 km/h W-NW 1,1 C 3,0 C 21,7 km/h
05.12.2009 04:00 4,5 C 79 % 1015,6 hPa 0,0 l/m 8,4 km/h NW 1,2 C 2,8 C 22,5 km/h
05.12.2009 05:00 4,6 C 79 % 1015,7 hPa 0,0 l/m 8,2 km/h NW 1,3 C 3,0 C 20,1 km/h
05.12.2009 06:00 4,6 C 79 % 1015,7 hPa 0,0 l/m 6,2 km/h W-NW 1,3 C 4,5 C 16,1 km/h
05.12.2009 07:00 4,7 C 78 % 1016,1 hPa 0,0 l/m 6,0 km/h N-NW 1,2 C 4,7 C 15,7 km/h
05.12.2009 08:00 4,6 C 77 % 1016,4 hPa 0,0 l/m 4,8 km/h W 1,0 C 4,6 C 14,1 km/h
05.12.2009 09:00 5,0 C 76 % 1016,9 hPa 0,0 l/m 4,6 km/h NW 1,2 C 5,0 C 14,5 km/h
05.12.2009 10:00 5,5 C 73 % 1017,0 hPa 0,0 l/m 6,3 km/h NW 1,1 C 5,4 C 16,1 km/h
05.12.2009 11:00 6,2 C 70 % 1016,9 hPa 0,0 l/m 6,2 km/h NW 1,2 C 5,7 C 16,9 km/h
05.12.2009 12:00 6,8 C 67 % 1016,7 hPa 0,0 l/m 6,2 km/h NW 1,2 C 6,4 C 15,7 km/h
05.12.2009 13:00 6,8 C 64 % 1016,6 hPa 0,0 l/m 6,1 km/h NW 0,5 C 6,8 C 16,5 km/h
05.12.2009 14:00 6,4 C 64 % 1016,8 hPa 0,0 l/m 8,0 km/h NW 0,1 C 5,1 C 17,3 km/h
05.12.2009 15:00 6,3 C 65 % 1017,1 hPa 0,0 l/m 2,9 km/h N-NW 0,2 C 6,3 C 6,8 km/h
05.12.2009 16:00 5,3 C 65 % 1017,6 hPa 0,0 l/m 0,3 km/h N -0,7 C 5,3 C 2,8 km/h
05.12.2009 17:00 3,0 C 72 % 1018,1 hPa 0,0 l/m 0,0 km/h N -1,7 C 3,0 C 0,4 km/h
05.12.2009 18:00 1,5 C 78 % 1018,4 hPa 0,0 l/m 0,0 km/h N -1,9 C 1,5 C 1,6 km/h
05.12.2009 19:00 0,4 C 81 % 1018,7 hPa 0,0 l/m 0,0 km/h N -2,6 C 0,4 C 1,2 km/h
05.12.2009 20:00 -0,5 C 83 % 1018,9 hPa 0,0 l/m 0,0 km/h N -3,0 C -0,5 C 0,0 km/h
05.12.2009 21:00 -1,1 C 84 % 1018,6 hPa 0,0 l/m 0,1 km/h N -3,5 C -1,1 C 0,4 km/h
05.12.2009 22:00 -1,8 C 86 % 1018,6 hPa 0,0 l/m 0,0 km/h N -3,9 C -1,8 C 0,8 km/h
05.12.2009 23:00 -2,2 C 87 % 1018,7 hPa 0,0 l/m 0,0 km/h N -4,1 C -2,2 C 0,0 km/h
06.12.2009 00:00 -2,2 C 88 % 1018,4 hPa 0,0 l/m 0,0 km/h N -4,0 C -2,2 C 0,0 km/h
06.12.2009 01:00 -2,4 C 88 % 1018,1 hPa 0,0 l/m 0,0 km/h N -4,1 C -2,4 C 0,4 km/h
06.12.2009 02:00 -1,6 C 89 % 1017,7 hPa 0,0 l/m 0,0 km/h N -3,2 C -1,6 C 0,4 km/h
06.12.2009 03:00 -1,5 C 89 % 1017,6 hPa 0,0 l/m 0,0 km/h N -3,0 C -1,5 C 0,0 km/h
06.12.2009 04:00 -1,8 C 90 % 1017,8 hPa 0,0 l/m 0,0 km/h N -3,2 C -1,8 C 0,0 km/h
06.12.2009 05:00 -1,7 C 90 % 1018,2 hPa 0,0 l/m 0,0 km/h N -3,1 C -1,7 C 0,0 km/h
06.12.2009 06:00 -1,5 C 90 % 1018,3 hPa 0,0 l/m 0,0 km/h N -3,0 C -1,5 C 0,0 km/h
06.12.2009 07:00 -1,9 C 90 % 1018,4 hPa 0,0 l/m 0,0 km/h N -3,3 C -1,9 C 0,0 km/h
06.12.2009 08:00 -2,2 C 91 % 1018,8 hPa 0,0 l/m 0,2 km/h N -3,5 C -2,2 C 1,2 km/h
06.12.2009 09:00 -1,4 C 91 % 1019,1 hPa 0,0 l/m 0,6 km/h N -2,7 C -1,4 C 2,8 km/h
06.12.2009 10:00 -1,3 C 91 % 1019,1 hPa 0,0 l/m 0,3 km/h N -2,5 C -1,3 C 2,4 km/h
06.12.2009 11:00 -0,6 C 92 % 1018,8 hPa 0,0 l/m 0,5 km/h N -1,7 C -0,6 C 2,8 km/h
06.12.2009 12:00 0,2 C 92 % 1018,6 hPa 0,0 l/m 0,3 km/h N -1,0 C 0,2 C 2,0 km/h
06.12.2009 13:00 0,9 C 91 % 1017,8 hPa 0,0 l/m 0,4 km/h N -0,3 C 0,9 C 2,8 km/h
06.12.2009 14:00 1,5 C 91 % 1017,4 hPa 0,0 l/m 0,2 km/h N 0,2 C 1,5 C 3,6 km/h
06.12.2009 15:00 1,8 C 90 % 1017,2 hPa 0,0 l/m 0,2 km/h N 0,4 C 1,8 C 2,4 km/h
06.12.2009 16:00 1,6 C 90 % 1017,3 hPa 0,0 l/m 0,6 km/h N 0,2 C 1,6 C 5,6 km/h
06.12.2009 17:00 1,5 C 90 % 1017,1 hPa 0,0 l/m 1,1 km/h S 0,0 C 1,5 C 8,4 km/h
06.12.2009 18:00 1,9 C 91 % 1017,0 hPa 0,0 l/m 0,5 km/h S 0,6 C 1,9 C 4,8 km/h
06.12.2009 19:00 2,0 C 91 % 1017,1 hPa 0,0 l/m 1,3 km/h S 0,7 C 2,0 C 6,8 km/h
06.12.2009 20:00 2,0 C 91 % 1016,7 hPa 0,0 l/m 0,1 km/h N 0,7 C 2,0 C 2,8 km/h
06.12.2009 21:00 2,2 C 91 % 1016,7 hPa 0,0 l/m 0,6 km/h N 0,9 C 2,2 C 5,2 km/h
06.12.2009 22:00 2,2 C 91 % 1016,5 hPa 0,0 l/m 1,1 km/h S 0,9 C 2,2 C 6,8 km/h
06.12.2009 23:00 2,0 C 91 % 1016,4 hPa 0,0 l/m 0,7 km/h N 0,7 C 2,0 C 5,2 km/h
Min-Datum _ 06.12.09 05.12.09 01.12.09 - 30.11.09 - 05.12.09 06.12.09 01.12.09
_ Min-Zeit 01:30 14:00 01:15 - 02:30 - 23:15 01:30 02:45
Minimum _ -2,5 C 62 % 998,5 hPa - 0,0 km/h - -4,2 C -2,5 C 0,0 km/h
Max-Datum _ 30.11.09 30.11.09 06.12.09 01.12.09 30.11.09 - 30.11.09 30.11.09 30.11.09
_ Max-Zeit 14:00 02:15 09:30 10:00 06:45 - 16:00 11:30 06:45
Maximum _ 13,7 C 93 % 1019,2 hPa 2,6 l/m 16,2 km/h
S
- 8,1 C 13,4 C 41,8 km/h
S-SO
Durchschnitt _ 4,2 C 84 % 1011,1 hPa #10,7 l/m 2,5 km/h NW 1,6 C 4,0 C 8,5 km/h